createdAt,value
2019-02-02T00:03:27.721Z,0.80
2019-02-02T00:08:34.783Z,0.80
2019-02-02T00:13:41.755Z,0.80
2019-02-02T00:18:47.738Z,0.90
2019-02-02T00:23:53.202Z,0.80
2019-02-02T00:28:58.980Z,0.80
2019-02-02T00:34:04.942Z,0.90
2019-02-02T00:39:11.276Z,0.80
2019-02-02T00:44:17.419Z,0.80
2019-02-02T00:49:22.890Z,0.90
2019-02-02T00:54:28.775Z,0.90
2019-02-02T00:59:34.552Z,0.90
2019-02-02T01:04:40.672Z,0.90
2019-02-02T01:09:46.136Z,0.90
2019-02-02T01:14:51.921Z,0.90
2019-02-02T01:19:57.568Z,1.00
2019-02-02T01:25:03.393Z,1.00
2019-02-02T01:30:11.972Z,0.90
2019-02-02T01:35:17.851Z,0.90
2019-02-02T01:40:23.736Z,0.90
2019-02-02T01:45:29.282Z,0.90
2019-02-02T01:50:35.074Z,1.00
2019-02-02T01:55:40.891Z,0.90
2019-02-02T02:00:47.116Z,0.90
2019-02-02T02:05:52.591Z,0.90
2019-02-02T02:10:58.723Z,1.00
2019-02-02T02:16:04.537Z,1.00
2019-02-02T02:21:10.360Z,1.00
2019-02-02T02:26:16.130Z,1.00
2019-02-02T02:31:21.977Z,0.90
2019-02-02T02:36:27.423Z,0.90
2019-02-02T02:41:33.062Z,1.00
2019-02-02T02:46:38.543Z,0.90
2019-02-02T02:51:44.354Z,0.90
2019-02-02T02:56:49.818Z,0.90
2019-02-02T03:01:55.600Z,1.00
2019-02-02T03:07:01.381Z,0.80
2019-02-02T03:12:07.166Z,0.80
2019-02-02T03:17:12.630Z,0.90
2019-02-02T03:22:18.087Z,0.90
2019-02-02T03:27:23.896Z,0.90
2019-02-02T03:32:29.447Z,0.90
2019-02-02T03:37:35.256Z,0.80
2019-02-02T03:42:40.794Z,0.80
2019-02-02T03:47:46.247Z,0.90
2019-02-02T03:52:51.706Z,0.80
2019-02-02T03:57:57.831Z,0.90
2019-02-02T04:03:03.602Z,0.90
2019-02-02T04:08:09.567Z,0.80
2019-02-02T04:13:15.050Z,0.90
2019-02-02T04:18:20.530Z,0.90
2019-02-02T04:23:26.338Z,0.90
2019-02-02T04:28:32.551Z,0.90
2019-02-02T04:33:38.387Z,0.90
2019-02-02T04:38:43.904Z,0.90
2019-02-02T04:43:49.395Z,0.90
2019-02-02T04:48:54.865Z,1.00
2019-02-02T04:54:00.459Z,1.00
2019-02-02T04:59:06.782Z,0.90
2019-02-02T05:04:12.227Z,1.00
2019-02-02T05:09:17.686Z,1.00
2019-02-02T05:14:23.206Z,1.00
2019-02-02T05:19:28.646Z,1.00
2019-02-02T05:24:34.139Z,1.00
2019-02-02T05:29:41.543Z,1.00
2019-02-02T05:34:45.943Z,1.10
2019-02-02T05:39:51.763Z,1.00
2019-02-02T05:44:57.616Z,1.00
2019-02-02T05:50:03.452Z,1.10
2019-02-02T05:55:10.987Z,1.10
2019-02-02T06:00:21.007Z,1.10
2019-02-02T06:05:26.459Z,1.10
2019-02-02T06:10:32.294Z,1.00
2019-02-02T06:15:38.136Z,1.10
2019-02-02T06:20:43.911Z,1.20
2019-02-02T06:25:49.468Z,1.10
2019-02-02T06:30:55.299Z,1.20
2019-02-02T06:36:03.524Z,1.20
2019-02-02T06:41:07.013Z,1.20
2019-02-02T06:46:12.807Z,1.20
2019-02-02T06:51:18.382Z,1.20
2019-02-02T06:56:23.827Z,1.20
2019-02-02T07:01:29.262Z,1.20
2019-02-02T07:06:35.076Z,1.10
2019-02-02T07:11:41.563Z,1.20
2019-02-02T07:16:47.022Z,1.20
2019-02-02T07:21:52.561Z,1.20
2019-02-02T07:26:58.346Z,1.10
2019-02-02T07:32:03.903Z,1.10
2019-02-02T07:37:10.071Z,1.20
2019-02-02T07:42:16.191Z,1.20
2019-02-02T07:47:22.040Z,1.20
2019-02-02T07:52:27.587Z,1.30
2019-02-02T07:57:33.061Z,1.30
2019-02-02T08:02:38.555Z,1.40
2019-02-02T08:07:44.028Z,1.20
2019-02-02T08:12:49.868Z,1.30
2019-02-02T08:17:55.332Z,1.30
2019-02-02T08:23:01.252Z,1.30
2019-02-02T08:28:06.855Z,1.20
2019-02-02T08:33:12.686Z,1.30
2019-02-02T08:38:18.207Z,1.30
2019-02-02T08:43:23.659Z,1.30
2019-02-02T08:48:29.854Z,1.30
2019-02-02T08:53:36.111Z,1.40
2019-02-02T08:58:41.914Z,1.40
2019-02-02T09:03:47.439Z,1.40
2019-02-02T09:08:52.897Z,1.50
2019-02-02T09:13:58.337Z,1.40
2019-02-02T09:19:03.826Z,1.50
2019-02-02T09:24:09.304Z,1.60
2019-02-02T09:29:15.144Z,1.60
2019-02-02T09:34:21.053Z,1.50
2019-02-02T09:39:26.875Z,1.60
2019-02-02T09:44:32.697Z,1.50
2019-02-02T09:49:38.502Z,1.60
2019-02-02T09:54:44.078Z,1.60
2019-02-02T09:59:49.542Z,1.60
2019-02-02T10:04:55.386Z,1.60
2019-02-02T10:10:01.620Z,1.60
2019-02-02T10:15:07.426Z,1.70
2019-02-02T10:20:16.399Z,1.70
2019-02-02T10:25:25.373Z,1.70
2019-02-02T10:30:34.889Z,1.70
2019-02-02T10:35:40.500Z,1.70
2019-02-02T10:40:46.789Z,1.60
2019-02-02T10:45:52.938Z,1.70
2019-02-02T10:50:58.427Z,1.70
2019-02-02T10:56:03.874Z,1.70
2019-02-02T11:01:09.670Z,1.70
2019-02-02T11:06:15.939Z,1.80
2019-02-02T11:11:21.742Z,1.70
2019-02-02T11:16:27.964Z,1.70
2019-02-02T11:21:34.182Z,1.80
2019-02-02T11:26:39.640Z,1.80
2019-02-02T11:31:45.475Z,1.80
2019-02-02T11:36:51.675Z,1.80
2019-02-02T11:41:57.846Z,1.90
2019-02-02T11:47:03.285Z,1.90
2019-02-02T11:52:09.078Z,1.90
2019-02-02T11:57:14.498Z,1.80
2019-02-02T12:02:19.971Z,1.80
2019-02-02T12:07:25.789Z,1.80
2019-02-02T12:12:31.238Z,1.90
2019-02-02T12:17:37.006Z,1.80
2019-02-02T12:22:42.555Z,1.70
2019-02-02T12:27:48.378Z,1.70
2019-02-02T12:32:53.823Z,1.70
2019-02-02T12:37:59.984Z,1.60
2019-02-02T12:43:05.552Z,1.60
2019-02-02T12:48:11.090Z,1.50
2019-02-02T12:53:16.987Z,1.70
2019-02-02T12:58:22.794Z,1.60
2019-02-02T13:03:28.291Z,1.60
2019-02-02T13:08:34.095Z,1.60
2019-02-02T13:13:42.597Z,1.50
2019-02-02T13:18:45.499Z,1.50
2019-02-02T13:23:50.958Z,1.50
2019-02-02T13:28:56.735Z,1.40
2019-02-02T13:34:02.293Z,1.40
2019-02-02T13:39:11.378Z,1.20
2019-02-02T13:44:16.822Z,1.20
2019-02-02T13:49:22.631Z,1.20
2019-02-02T13:54:28.088Z,1.30
2019-02-02T13:59:33.903Z,1.10
2019-02-02T14:04:39.362Z,1.20
2019-02-02T14:09:45.181Z,1.30
2019-02-02T14:14:50.657Z,1.40
2019-02-02T14:19:56.156Z,1.40
2019-02-02T14:25:01.676Z,1.40
2019-02-02T14:30:12.697Z,1.20
2019-02-02T14:35:28.144Z,1.20
2019-02-02T14:40:34.315Z,1.20
2019-02-02T14:45:40.442Z,1.20
2019-02-02T14:55:42.719Z,1.30
2019-02-02T15:00:48.748Z,1.10
2019-02-02T15:05:54.242Z,1.20
2019-02-02T15:10:59.678Z,1.20
2019-02-02T15:16:05.529Z,1.20
2019-02-02T15:21:11.014Z,1.20
2019-02-02T15:26:16.823Z,1.20
2019-02-02T15:31:22.578Z,1.20
2019-02-02T15:36:28.010Z,1.20
2019-02-02T15:41:33.480Z,1.10
2019-02-02T15:46:48.790Z,1.10
2019-02-02T15:51:44.745Z,1.10
2019-02-02T15:56:50.255Z,1.10
2019-02-02T16:01:55.770Z,1.10
2019-02-02T16:07:01.567Z,1.10
2019-02-02T16:12:09.625Z,1.10
2019-02-02T16:17:15.849Z,1.10
2019-02-02T16:22:21.323Z,1.10
2019-02-02T16:27:27.130Z,1.10
2019-02-02T16:32:32.577Z,1.10
2019-02-02T16:37:38.419Z,1.00
2019-02-02T16:42:44.555Z,1.10
2019-02-02T16:47:50.022Z,1.10
2019-02-02T16:52:55.568Z,1.10
2019-02-02T16:58:01.018Z,1.00
2019-02-02T17:03:06.790Z,1.10
2019-02-02T17:08:12.218Z,1.10
2019-02-02T17:13:17.654Z,1.10
2019-02-02T17:18:23.216Z,1.10
2019-02-02T17:23:29.021Z,1.10
2019-02-02T17:28:34.463Z,1.10
2019-02-02T17:33:39.912Z,1.10
2019-02-02T17:38:45.379Z,1.00
2019-02-02T17:43:51.221Z,1.10
2019-02-02T17:48:56.819Z,1.10
2019-02-02T17:54:02.687Z,1.10
2019-02-02T17:59:08.650Z,1.10
2019-02-02T18:04:13.952Z,1.10
2019-02-02T18:09:19.560Z,1.10
2019-02-02T18:14:25.012Z,1.10
2019-02-02T18:19:30.535Z,1.10
2019-02-02T18:24:36.111Z,1.10
2019-02-02T18:29:41.534Z,1.20
2019-02-02T18:34:51.295Z,1.20
2019-02-02T18:39:52.881Z,1.20
2019-02-02T18:44:58.420Z,1.20
2019-02-02T18:50:05.120Z,1.20
2019-02-02T18:55:17.994Z,1.30
2019-02-02T19:00:23.666Z,1.30
2019-02-02T19:05:29.652Z,1.20
2019-02-02T19:10:59.330Z,1.20
2019-02-02T19:16:16.110Z,1.20
2019-02-02T19:21:51.836Z,1.20
2019-02-02T19:27:10.279Z,1.20
2019-02-02T19:32:33.147Z,1.20
2019-02-02T19:43:23.993Z,1.20
2019-02-02T19:48:29.444Z,1.20
2019-02-02T19:53:34.950Z,1.20
2019-02-02T19:58:40.416Z,1.10
2019-02-02T20:03:45.922Z,1.10
2019-02-02T20:08:51.367Z,1.20
2019-02-02T20:13:56.839Z,1.10
2019-02-02T20:19:02.276Z,1.20
2019-02-02T20:24:07.739Z,1.10
2019-02-02T20:29:17.223Z,1.10
2019-02-02T20:39:40.234Z,1.10
2019-02-02T20:44:46.156Z,1.10
2019-02-02T20:49:58.031Z,1.10
2019-02-02T20:55:05.475Z,1.10
2019-02-02T21:00:15.767Z,1.10
2019-02-02T21:05:21.958Z,1.20
2019-02-02T21:10:27.779Z,1.10
2019-02-02T21:15:41.761Z,1.20
2019-02-02T21:20:48.054Z,1.20
2019-02-02T21:26:02.486Z,1.10
2019-02-02T21:31:07.980Z,1.10
2019-02-02T21:36:15.894Z,1.20
2019-02-02T21:41:23.198Z,1.20
2019-02-02T21:46:29.109Z,1.20
2019-02-02T21:51:34.567Z,1.30
2019-02-02T21:56:42.277Z,1.20
2019-02-02T22:01:47.855Z,1.20
2019-02-02T22:06:54.212Z,1.20
2019-02-02T22:12:00.392Z,1.30
2019-02-02T22:17:06.406Z,1.30
2019-02-02T22:22:11.926Z,1.30
2019-02-02T22:27:19.067Z,1.30
2019-02-02T22:32:39.430Z,1.20
2019-02-02T22:37:45.690Z,1.20
2019-02-02T22:42:55.838Z,1.10
2019-02-02T22:48:02.020Z,1.10
2019-02-02T22:53:07.868Z,1.10
2019-02-02T22:58:13.660Z,1.10
2019-02-02T23:03:21.235Z,1.00
2019-02-02T23:10:16.108Z,1.00
2019-02-02T23:15:56.813Z,1.00
2019-02-02T23:21:02.654Z,0.90
2019-02-02T23:26:08.451Z,1.00
2019-02-02T23:31:14.436Z,1.00
2019-02-02T23:36:19.919Z,1.00
2019-02-02T23:41:25.846Z,1.10
2019-02-02T23:46:31.685Z,1.10
2019-02-02T23:51:37.503Z,1.20
2019-02-02T23:56:43.506Z,1.20
